createdAt,value
2022-08-02T00:00:35.084Z,17.03
2022-08-02T00:03:01.851Z,16.51
2022-08-02T00:05:28.565Z,16.49
2022-08-02T00:07:55.260Z,16.90
2022-08-02T00:10:22.006Z,16.94
2022-08-02T00:12:48.710Z,16.85
2022-08-02T00:15:16.278Z,16.02
2022-08-02T00:17:44.334Z,15.94
2022-08-02T00:20:12.664Z,15.95
2022-08-02T00:22:39.693Z,16.23
2022-08-02T00:25:07.304Z,15.97
2022-08-02T00:27:34.100Z,16.51
2022-08-02T00:30:00.877Z,16.18
2022-08-02T00:32:27.666Z,16.03
2022-08-02T00:34:54.401Z,16.26
2022-08-02T00:37:21.230Z,16.21
2022-08-02T00:39:48.046Z,15.88
2022-08-02T00:42:16.004Z,15.82
2022-08-02T00:44:43.020Z,15.76
2022-08-02T00:47:09.984Z,15.40
2022-08-02T00:49:37.429Z,15.89
2022-08-02T00:52:05.023Z,15.86
2022-08-02T00:54:31.788Z,15.89
2022-08-02T00:56:58.546Z,16.10
2022-08-02T00:59:25.266Z,16.39
2022-08-02T01:01:56.914Z,16.27
2022-08-02T01:04:30.198Z,15.38
2022-08-02T01:07:12.991Z,16.28
2022-08-02T01:09:46.315Z,16.55
2022-08-02T01:12:14.258Z,15.69
2022-08-02T01:14:43.430Z,15.45
2022-08-02T01:17:45.060Z,15.58
2022-08-02T01:21:01.386Z,15.34
2022-08-02T01:24:05.318Z,15.23
2022-08-02T01:26:47.957Z,15.16
2022-08-02T01:29:19.473Z,15.19
2022-08-02T01:32:10.926Z,15.12
2022-08-02T01:34:51.857Z,15.18
2022-08-02T01:37:51.565Z,15.02
2022-08-02T01:40:29.354Z,14.97
2022-08-02T01:43:00.182Z,15.56
2022-08-02T01:45:33.387Z,15.13
2022-08-02T01:48:01.430Z,15.06
2022-08-02T01:50:33.501Z,14.97
2022-08-02T01:53:07.711Z,15.09
2022-08-02T01:55:57.429Z,15.15
2022-08-02T01:58:29.944Z,15.33
2022-08-02T02:00:58.686Z,16.38
2022-08-02T02:03:27.048Z,16.86
2022-08-02T02:05:57.495Z,16.42
2022-08-02T02:08:30.779Z,16.83
2022-08-02T02:12:11.630Z,16.05
2022-08-02T02:13:46.102Z,15.51
2022-08-02T02:16:14.672Z,14.49
2022-08-02T02:18:43.822Z,14.08
2022-08-02T02:21:12.703Z,14.00
2022-08-02T02:23:39.787Z,14.32
2022-08-02T02:26:10.646Z,14.13
2022-08-02T02:28:39.187Z,13.98
2022-08-02T02:31:13.829Z,13.86
2022-08-02T02:33:52.802Z,14.08
2022-08-02T02:36:21.175Z,14.33
2022-08-02T02:38:50.635Z,13.80
2022-08-02T02:41:21.066Z,13.65
2022-08-02T02:43:48.950Z,14.17
2022-08-02T02:46:17.663Z,14.17
2022-08-02T02:48:44.914Z,14.03
2022-08-02T02:51:14.021Z,14.07
2022-08-02T02:54:29.836Z,14.26
2022-08-02T02:56:31.049Z,14.06
2022-08-02T02:59:00.589Z,13.77
2022-08-02T03:01:55.496Z,14.08
2022-08-02T03:04:15.552Z,13.96
2022-08-02T03:06:42.390Z,13.84
2022-08-02T03:09:11.594Z,13.87
2022-08-02T03:11:40.638Z,14.24
2022-08-02T03:14:11.322Z,14.41
2022-08-02T03:17:04.022Z,13.89
2022-08-02T03:19:33.216Z,13.65
2022-08-02T03:22:00.171Z,13.28
2022-08-02T03:24:27.799Z,13.23
2022-08-02T03:26:55.617Z,13.14
2022-08-02T03:29:22.364Z,13.22
2022-08-02T03:31:49.426Z,13.10
2022-08-02T03:34:16.265Z,13.22
2022-08-02T03:36:43.791Z,13.41
2022-08-02T03:39:12.392Z,13.58
2022-08-02T03:41:39.825Z,13.94
2022-08-02T03:44:07.789Z,13.61
2022-08-02T03:46:39.207Z,14.66
2022-08-02T03:49:08.645Z,16.46
2022-08-02T03:51:36.547Z,17.28
2022-08-02T03:54:03.947Z,17.78
2022-08-02T03:56:31.986Z,18.48
2022-08-02T03:59:10.888Z,17.58
2022-08-02T04:01:38.162Z,16.47
2022-08-02T04:04:06.394Z,17.08
2022-08-02T04:06:34.281Z,16.04
2022-08-02T04:09:01.425Z,14.78
2022-08-02T04:11:31.369Z,14.18
2022-08-02T04:14:05.991Z,15.24
2022-08-02T04:17:04.612Z,15.45
2022-08-02T04:19:56.172Z,17.16
2022-08-02T04:22:45.430Z,18.37
2022-08-02T04:25:17.339Z,18.89
2022-08-02T04:27:51.221Z,19.51
2022-08-02T04:30:33.528Z,19.71
2022-08-02T04:33:01.040Z,19.63
2022-08-02T04:35:28.033Z,19.36
2022-08-02T04:38:09.293Z,19.57
2022-08-02T04:40:38.208Z,19.79
2022-08-02T04:43:05.101Z,19.64
2022-08-02T04:45:32.480Z,20.05
2022-08-02T04:48:04.897Z,19.86
2022-08-02T04:50:32.662Z,19.84
2022-08-02T04:52:59.479Z,18.31
2022-08-02T04:55:28.995Z,17.66
2022-08-02T04:57:57.686Z,17.25
2022-08-02T05:00:27.897Z,18.21
2022-08-02T05:02:57.074Z,18.03
2022-08-02T05:05:24.030Z,17.40
2022-08-02T05:07:51.056Z,16.60
2022-08-02T05:10:18.330Z,16.27
2022-08-02T05:12:45.077Z,16.48
2022-08-02T05:15:13.352Z,16.66
2022-08-02T05:17:47.829Z,17.28
2022-08-02T05:20:19.110Z,17.77
2022-08-02T05:22:46.958Z,17.00
2022-08-02T05:25:14.181Z,17.70
2022-08-02T05:27:41.204Z,18.01
2022-08-02T05:30:09.027Z,18.11
2022-08-02T05:32:43.716Z,18.94
2022-08-02T05:35:10.400Z,18.60
2022-08-02T05:37:37.068Z,19.01
2022-08-02T05:40:05.339Z,20.26
2022-08-02T05:42:40.770Z,18.13
2022-08-02T05:45:08.467Z,18.00
2022-08-02T05:47:35.216Z,18.85
2022-08-02T05:50:02.312Z,18.78
2022-08-02T05:52:51.678Z,20.16
2022-08-02T05:55:28.252Z,21.38
2022-08-02T05:58:14.235Z,19.88
2022-08-02T06:00:42.178Z,20.86
2022-08-02T06:03:26.019Z,20.81
2022-08-02T06:06:12.606Z,21.06
2022-08-02T06:08:47.751Z,21.01
2022-08-02T06:11:20.954Z,21.78
2022-08-02T06:13:47.702Z,21.87
2022-08-02T06:16:14.991Z,20.16
2022-08-02T06:18:43.593Z,20.67
2022-08-02T06:22:40.270Z,22.45
2022-08-02T06:23:59.085Z,23.20
2022-08-02T06:26:28.341Z,23.86
2022-08-02T06:28:58.039Z,23.56
2022-08-02T06:31:25.445Z,23.54
2022-08-02T06:33:52.339Z,22.05
2022-08-02T06:36:47.925Z,23.33
2022-08-02T06:39:39.474Z,23.44
2022-08-02T06:42:13.848Z,23.67
2022-08-02T06:44:53.015Z,23.23
2022-08-02T06:47:22.378Z,22.68
2022-08-02T06:49:53.043Z,22.25
2022-08-02T06:52:28.838Z,23.28
2022-08-02T06:55:03.224Z,23.04
2022-08-02T06:57:30.667Z,23.36
2022-08-02T07:00:00.983Z,23.55
2022-08-02T07:02:29.099Z,22.06
2022-08-02T07:04:55.995Z,21.64
2022-08-02T07:07:22.981Z,22.12
2022-08-02T07:09:56.401Z,21.42
2022-08-02T07:12:30.241Z,21.60
2022-08-02T07:14:58.518Z,22.58
2022-08-02T07:17:25.491Z,20.32
2022-08-02T07:19:52.217Z,20.72
2022-08-02T07:22:22.973Z,21.51
2022-08-02T07:24:51.058Z,21.97
2022-08-02T07:27:17.974Z,21.29
2022-08-02T07:29:46.480Z,22.03
2022-08-02T07:32:19.856Z,21.75
2022-08-02T07:34:53.245Z,21.45
2022-08-02T07:37:35.445Z,21.86
2022-08-02T07:40:13.868Z,21.49
2022-08-02T07:42:44.482Z,22.90
2022-08-02T07:45:13.130Z,23.37
2022-08-02T07:47:44.853Z,22.89
2022-08-02T07:50:13.873Z,23.44
2022-08-02T07:52:41.655Z,22.54
2022-08-02T07:55:10.923Z,23.68
2022-08-02T07:57:44.072Z,24.67
2022-08-02T08:00:13.846Z,24.94
2022-08-02T08:02:40.726Z,25.83
2022-08-02T08:05:08.126Z,26.80
2022-08-02T08:07:35.193Z,26.83
2022-08-02T08:10:02.280Z,26.57
2022-08-02T08:12:29.167Z,24.90
2022-08-02T08:14:55.977Z,24.37
2022-08-02T08:17:23.481Z,24.29
2022-08-02T08:19:52.493Z,24.27
2022-08-02T08:22:20.866Z,24.83
2022-08-02T08:24:48.623Z,23.58
2022-08-02T08:27:16.924Z,22.92
2022-08-02T08:29:44.749Z,24.06
2022-08-02T08:32:17.684Z,24.71
2022-08-02T08:34:59.068Z,25.06
2022-08-02T08:37:25.919Z,25.25
2022-08-02T08:39:56.781Z,25.55
2022-08-02T08:42:30.886Z,25.71
2022-08-02T08:44:59.262Z,26.49
2022-08-02T08:47:42.822Z,26.68
2022-08-02T08:50:33.466Z,27.02
2022-08-02T08:53:08.729Z,25.26
2022-08-02T08:55:39.057Z,24.44
2022-08-02T08:58:06.418Z,25.15
2022-08-02T09:00:36.623Z,23.80
2022-08-02T09:03:06.109Z,21.81
2022-08-02T09:05:36.403Z,21.74
2022-08-02T09:08:03.270Z,23.10
2022-08-02T09:10:42.016Z,23.48
2022-08-02T09:13:38.708Z,22.96
2022-08-02T09:16:13.051Z,22.68
2022-08-02T09:18:45.355Z,22.82
2022-08-02T09:21:14.920Z,23.34
2022-08-02T09:23:51.583Z,22.95
2022-08-02T09:26:23.945Z,22.45
2022-08-02T09:29:01.948Z,21.44
2022-08-02T09:31:28.889Z,21.69
2022-08-02T09:34:00.011Z,22.00
2022-08-02T09:36:37.247Z,21.86
2022-08-02T09:39:10.712Z,22.13
2022-08-02T09:41:41.560Z,22.78
2022-08-02T09:44:15.869Z,22.63
2022-08-02T09:46:45.541Z,23.67
2022-08-02T09:49:15.167Z,22.92
2022-08-02T09:51:52.065Z,23.33
2022-08-02T09:54:24.012Z,22.55
2022-08-02T09:56:55.178Z,21.63
2022-08-02T09:59:26.568Z,21.89
2022-08-02T10:02:00.414Z,22.47
2022-08-02T10:04:31.986Z,22.24
2022-08-02T10:07:04.387Z,23.20
2022-08-02T10:09:32.289Z,22.72
2022-08-02T10:12:00.630Z,22.92
2022-08-02T10:14:28.648Z,23.56
2022-08-02T10:16:58.140Z,23.88
2022-08-02T10:20:03.474Z,24.71
2022-08-02T10:22:16.163Z,25.61
2022-08-02T10:24:48.073Z,23.21
2022-08-02T10:27:21.280Z,23.76
2022-08-02T10:29:54.918Z,23.60
2022-08-02T10:32:43.781Z,22.95
2022-08-02T10:35:19.847Z,24.07
2022-08-02T10:38:03.746Z,24.47
2022-08-02T10:40:55.932Z,24.82
2022-08-02T10:43:31.515Z,24.99
2022-08-02T10:46:22.751Z,24.71
2022-08-02T10:52:08.945Z,25.55
2022-08-02T10:55:00.668Z,26.99
2022-08-02T10:57:31.006Z,26.55
2022-08-02T11:00:22.401Z,25.51
2022-08-02T11:02:53.447Z,25.41
2022-08-02T11:05:43.063Z,24.69
2022-08-02T11:08:21.722Z,25.03
2022-08-02T11:10:48.664Z,24.49
2022-08-02T11:13:19.796Z,24.36
2022-08-02T11:15:51.350Z,25.00
2022-08-02T11:18:19.446Z,25.77
2022-08-02T11:20:46.911Z,25.73
2022-08-02T11:23:45.326Z,24.42
2022-08-02T11:26:30.989Z,24.85
2022-08-02T11:29:03.530Z,25.16
2022-08-02T11:31:38.822Z,25.56
2022-08-02T11:34:09.603Z,26.45
2022-08-02T11:36:52.058Z,25.20
2022-08-02T11:39:24.814Z,25.18
2022-08-02T11:41:58.811Z,24.38
2022-08-02T11:44:30.322Z,24.95
2022-08-02T11:47:02.296Z,24.49
2022-08-02T11:49:29.740Z,24.91
2022-08-02T11:52:08.004Z,26.02
2022-08-02T11:54:41.474Z,24.52
2022-08-02T11:57:21.769Z,23.98
2022-08-02T11:59:52.096Z,23.64
2022-08-02T12:02:29.069Z,24.42
2022-08-02T12:05:11.402Z,25.68
2022-08-02T12:07:45.832Z,26.62
2022-08-02T12:10:24.412Z,25.78
2022-08-02T12:13:00.807Z,24.85
2022-08-02T12:15:34.654Z,24.88
2022-08-02T12:18:20.550Z,25.82
2022-08-02T12:20:47.850Z,25.90
2022-08-02T12:23:14.839Z,24.91
2022-08-02T12:25:41.684Z,24.89
2022-08-02T12:28:25.312Z,25.37
2022-08-02T12:30:55.977Z,25.62
2022-08-02T12:33:25.046Z,24.81
2022-08-02T12:35:52.440Z,24.58
2022-08-02T12:38:21.705Z,24.97
2022-08-02T12:40:49.648Z,25.22
2022-08-02T12:43:24.007Z,25.53
2022-08-02T12:45:54.237Z,26.64
2022-08-02T12:49:16.245Z,27.10
2022-08-02T12:51:55.858Z,25.60
2022-08-02T12:54:38.901Z,25.54
2022-08-02T12:57:14.419Z,25.01
2022-08-02T12:59:45.089Z,25.44
2022-08-02T13:02:14.628Z,25.89
2022-08-02T13:04:42.193Z,25.81
2022-08-02T13:07:18.186Z,26.52
2022-08-02T13:09:46.687Z,26.55
2022-08-02T13:12:13.921Z,27.11
2022-08-02T13:14:42.643Z,27.35
2022-08-02T13:17:11.393Z,27.42
2022-08-02T13:19:38.854Z,27.75
2022-08-02T13:22:06.367Z,28.07
2022-08-02T13:24:39.691Z,29.92
2022-08-02T13:27:21.946Z,30.89
2022-08-02T13:29:50.829Z,31.86
2022-08-02T13:32:17.873Z,33.06
2022-08-02T13:34:45.249Z,31.48
2022-08-02T13:37:12.483Z,31.24
2022-08-02T13:39:39.215Z,30.68
2022-08-02T13:42:07.011Z,30.75
2022-08-02T13:44:35.254Z,31.53
2022-08-02T13:47:03.029Z,32.80
2022-08-02T13:49:51.146Z,30.79
2022-08-02T13:52:17.426Z,29.19
2022-08-02T13:54:44.323Z,29.39
2022-08-02T13:57:11.142Z,31.32
2022-08-02T13:59:56.570Z,33.93
2022-08-02T14:02:25.651Z,33.92
2022-08-02T14:04:52.470Z,32.05
2022-08-02T14:07:19.388Z,33.19
2022-08-02T14:09:46.679Z,32.35
2022-08-02T14:12:13.734Z,29.66
2022-08-02T14:14:40.863Z,29.12
2022-08-02T14:17:07.793Z,29.02
2022-08-02T14:19:34.678Z,29.77
2022-08-02T14:22:11.794Z,28.65
2022-08-02T14:24:41.463Z,28.75
2022-08-02T14:27:08.232Z,28.50
2022-08-02T14:29:35.011Z,28.34
2022-08-02T14:32:02.217Z,29.15
2022-08-02T14:34:29.578Z,30.32
2022-08-02T14:36:56.917Z,32.11
2022-08-02T14:39:24.021Z,34.98
2022-08-02T14:41:58.217Z,36.97
2022-08-02T14:44:27.506Z,35.29
2022-08-02T14:46:56.307Z,33.78
2022-08-02T14:49:25.135Z,34.61
2022-08-02T14:51:54.705Z,35.89
2022-08-02T14:54:28.069Z,37.72
2022-08-02T14:57:04.909Z,39.11
2022-08-02T14:59:31.730Z,39.44
2022-08-02T15:01:59.666Z,37.30
2022-08-02T15:04:27.177Z,34.38
2022-08-02T15:06:54.998Z,35.71
2022-08-02T15:09:22.332Z,36.71
2022-08-02T15:11:49.759Z,37.08
2022-08-02T15:14:25.528Z,37.92
2022-08-02T15:16:58.171Z,39.24
2022-08-02T15:19:38.537Z,37.97
2022-08-02T15:22:16.101Z,37.80
2022-08-02T15:24:45.402Z,38.25
2022-08-02T15:27:14.413Z,39.20
2022-08-02T15:29:43.154Z,39.57
2022-08-02T15:32:10.602Z,36.93
2022-08-02T15:34:37.859Z,36.64
2022-08-02T15:37:04.787Z,35.25
2022-08-02T15:39:31.897Z,35.95
2022-08-02T15:41:58.803Z,34.41
2022-08-02T15:44:25.540Z,34.49
2022-08-02T15:46:53.605Z,35.38
2022-08-02T15:49:23.694Z,35.34
2022-08-02T15:51:52.462Z,36.62
2022-08-02T15:54:22.267Z,38.01
2022-08-02T15:56:49.865Z,37.55
2022-08-02T15:59:16.944Z,37.14
2022-08-02T16:01:47.521Z,36.99
2022-08-02T16:04:16.900Z,37.13
2022-08-02T16:06:44.623Z,36.48
2022-08-02T16:09:11.406Z,36.79
2022-08-02T16:11:38.862Z,36.31
2022-08-02T16:14:06.483Z,36.85
2022-08-02T16:16:36.951Z,37.31
2022-08-02T16:19:46.389Z,37.35
2022-08-02T16:21:53.887Z,38.12
2022-08-02T16:24:21.424Z,37.16
2022-08-02T16:26:48.550Z,38.15
2022-08-02T16:29:19.068Z,38.83
2022-08-02T16:31:48.032Z,40.16
2022-08-02T16:34:16.519Z,40.75
2022-08-02T16:36:43.769Z,40.82
2022-08-02T16:39:10.596Z,40.47
2022-08-02T16:41:45.450Z,38.05
2022-08-02T16:47:13.496Z,37.11
2022-08-02T16:50:04.600Z,35.18
2022-08-02T16:52:28.491Z,34.73
2022-08-02T16:54:55.404Z,34.16
2022-08-02T16:57:22.171Z,34.88
2022-08-02T16:59:57.700Z,35.68
2022-08-02T17:02:28.621Z,35.97
2022-08-02T17:04:55.790Z,36.61
2022-08-02T17:08:07.974Z,37.37
2022-08-02T17:10:11.585Z,37.48
2022-08-02T17:12:39.618Z,38.00
2022-08-02T17:15:36.241Z,38.28
2022-08-02T17:17:55.081Z,37.66
2022-08-02T17:20:21.774Z,37.61
2022-08-02T17:22:51.291Z,37.64
2022-08-02T17:25:18.275Z,38.74
2022-08-02T17:27:45.825Z,39.08
2022-08-02T17:30:13.546Z,39.66
2022-08-02T17:32:45.580Z,40.26
2022-08-02T17:35:15.684Z,40.34
2022-08-02T17:37:54.340Z,40.01
2022-08-02T17:40:27.079Z,39.96
2022-08-02T17:42:53.815Z,38.83
2022-08-02T17:45:25.878Z,38.53
2022-08-02T17:48:04.288Z,38.30
2022-08-02T17:50:33.547Z,38.12
2022-08-02T17:53:00.947Z,37.21
2022-08-02T17:55:28.473Z,36.73
2022-08-02T17:57:59.401Z,36.79
2022-08-02T18:00:37.765Z,36.58
2022-08-02T18:03:07.943Z,36.24
2022-08-02T18:05:49.711Z,35.97
2022-08-02T18:08:22.847Z,35.78
2022-08-02T18:10:50.693Z,35.60
2022-08-02T18:13:17.414Z,35.39
2022-08-02T18:15:45.524Z,35.00
2022-08-02T18:18:13.381Z,34.96
2022-08-02T18:20:41.826Z,34.59
2022-08-02T18:23:11.069Z,34.47
2022-08-02T18:25:45.863Z,34.46
2022-08-02T18:28:13.977Z,34.25
2022-08-02T18:30:40.980Z,33.99
2022-08-02T18:33:55.388Z,33.77
2022-08-02T18:35:55.745Z,33.49
2022-08-02T18:38:24.864Z,33.30
2022-08-02T18:40:53.766Z,33.20
2022-08-02T18:43:25.747Z,32.97
2022-08-02T18:46:06.681Z,32.75
2022-08-02T18:48:46.580Z,32.71
2022-08-02T18:51:14.860Z,32.60
2022-08-02T18:53:42.788Z,32.34
2022-08-02T18:56:19.645Z,32.19
2022-08-02T18:58:51.859Z,31.73
2022-08-02T19:01:32.243Z,31.76
2022-08-02T19:04:02.906Z,31.65
2022-08-02T19:06:30.269Z,31.41
2022-08-02T19:09:05.667Z,31.27
2022-08-02T19:11:47.523Z,31.06
2022-08-02T19:14:27.289Z,30.99
2022-08-02T19:16:56.313Z,30.90
2022-08-02T19:19:23.579Z,30.44
2022-08-02T19:22:15.705Z,30.54
2022-08-02T19:24:44.185Z,30.46
2022-08-02T19:27:14.765Z,30.25
2022-08-02T19:29:50.846Z,29.98
2022-08-02T19:32:39.709Z,30.03
2022-08-02T19:35:19.187Z,29.69
2022-08-02T19:38:05.343Z,29.69
2022-08-02T19:40:32.330Z,29.56
2022-08-02T19:44:23.832Z,29.53
2022-08-02T19:45:50.804Z,29.42
2022-08-02T19:48:24.194Z,29.39
2022-08-02T19:50:56.742Z,29.37
2022-08-02T19:53:29.072Z,29.27
2022-08-02T19:56:21.576Z,29.16
2022-08-02T19:58:54.840Z,28.82
2022-08-02T20:01:36.762Z,29.02
2022-08-02T20:04:13.221Z,28.98
2022-08-02T20:06:46.079Z,28.21
2022-08-02T20:09:17.093Z,27.02
2022-08-02T20:11:54.252Z,26.70
2022-08-02T20:14:26.931Z,26.29
2022-08-02T20:16:57.337Z,23.39
2022-08-02T20:19:24.739Z,22.72
2022-08-02T20:21:56.856Z,23.65
2022-08-02T20:24:27.547Z,25.58
2022-08-02T20:26:59.160Z,26.32
2022-08-02T20:29:43.458Z,26.24
2022-08-02T20:32:12.307Z,26.80
2022-08-02T20:34:39.095Z,27.36
2022-08-02T20:37:59.801Z,27.50
2022-08-02T20:39:52.858Z,27.70
2022-08-02T20:42:23.585Z,27.55
2022-08-02T20:44:55.815Z,27.85
2022-08-02T20:47:27.798Z,27.58
2022-08-02T20:50:31.168Z,27.79
2022-08-02T20:52:59.552Z,27.74
2022-08-02T20:55:27.293Z,27.68
2022-08-02T20:58:00.525Z,27.72
2022-08-02T21:00:28.554Z,27.77
2022-08-02T21:02:55.722Z,27.78
2022-08-02T21:05:26.742Z,27.51
2022-08-02T21:10:57.773Z,27.54
2022-08-02T21:13:26.132Z,26.84
2022-08-02T21:15:55.059Z,26.99
2022-08-02T21:18:33.338Z,27.24
2022-08-02T21:21:08.707Z,27.21
2022-08-02T21:23:36.681Z,27.16
2022-08-02T21:28:53.966Z,27.08
2022-08-02T21:31:20.914Z,26.95
2022-08-02T21:33:58.626Z,26.95
2022-08-02T21:36:30.639Z,26.98
2022-08-02T21:38:58.289Z,26.86
2022-08-02T21:41:24.984Z,26.71
2022-08-02T21:44:07.667Z,26.73
2022-08-02T21:46:34.638Z,26.64
2022-08-02T21:49:01.997Z,26.70
2022-08-02T21:51:29.139Z,26.42
2022-08-02T21:54:18.692Z,26.49
2022-08-02T21:56:48.814Z,26.55
2022-08-02T21:59:25.923Z,26.57
2022-08-02T22:01:57.151Z,26.53
2022-08-02T22:04:25.980Z,26.38
2022-08-02T22:06:55.053Z,26.36
2022-08-02T22:09:44.583Z,25.90
2022-08-02T22:12:18.281Z,26.29
2022-08-02T22:14:53.906Z,26.41
2022-08-02T22:17:46.744Z,26.49
2022-08-02T22:20:19.935Z,26.44
2022-08-02T22:22:52.511Z,26.54
2022-08-02T22:25:26.982Z,26.54
2022-08-02T22:28:38.956Z,26.47
2022-08-02T22:30:53.204Z,26.55
2022-08-02T22:33:42.159Z,26.57
2022-08-02T22:36:13.238Z,26.66
2022-08-02T22:38:44.331Z,26.67
2022-08-02T22:41:13.483Z,26.67
2022-08-02T22:43:42.003Z,26.68
2022-08-02T22:46:10.222Z,26.68
2022-08-02T22:48:42.523Z,26.69
2022-08-02T22:51:11.123Z,26.63
2022-08-02T22:53:41.833Z,26.44
2022-08-02T22:56:10.188Z,26.48
2022-08-02T22:58:34.616Z,38.24
2022-08-02T22:59:01.821Z,27.59
2022-08-02T22:59:02.660Z,27.14
2022-08-02T22:59:07.211Z,26.57
2022-08-02T23:01:24.430Z,26.43
2022-08-02T23:03:51.179Z,26.36
2022-08-02T23:06:19.197Z,26.53
2022-08-02T23:08:49.789Z,26.51
2022-08-02T23:11:16.561Z,26.49
2022-08-02T23:13:43.292Z,26.51
2022-08-02T23:16:28.527Z,26.53
2022-08-02T23:19:13.817Z,26.54
2022-08-02T23:21:46.060Z,26.48
2022-08-02T23:24:28.426Z,26.42
2022-08-02T23:26:55.136Z,26.43
2022-08-02T23:29:22.619Z,26.35
2022-08-02T23:31:49.377Z,26.13
2022-08-02T23:34:16.169Z,26.19
2022-08-02T23:36:42.915Z,26.10
2022-08-02T23:39:09.730Z,26.01
2022-08-02T23:41:36.415Z,25.77
2022-08-02T23:44:13.576Z,25.77
2022-08-02T23:46:45.938Z,25.78
2022-08-02T23:49:14.136Z,25.73
2022-08-02T23:51:40.916Z,25.57
2022-08-02T23:54:08.345Z,25.48
2022-08-02T23:56:35.538Z,25.22
2022-08-02T23:59:02.313Z,25.20
